createdAt,value
2018-02-09T00:01:01.307Z,1015.22
2018-02-09T00:02:11.273Z,1015.27
2018-02-09T00:03:21.222Z,1015.25
2018-02-09T00:04:30.926Z,1015.22
2018-02-09T00:05:40.917Z,1015.21
2018-02-09T00:06:50.862Z,1015.24
2018-02-09T00:08:00.795Z,1015.26
2018-02-09T00:09:10.467Z,1015.24
2018-02-09T00:10:20.174Z,1015.23
2018-02-09T00:11:30.121Z,1015.21
2018-02-09T00:12:40.065Z,1015.22
2018-02-09T00:13:49.758Z,1015.22
2018-02-09T00:14:59.194Z,1015.21
2018-02-09T00:16:09.137Z,1015.2
2018-02-09T00:17:19.075Z,1015.23
2018-02-09T00:18:28.762Z,1015.23
2018-02-09T00:19:38.709Z,1015.22
2018-02-09T00:20:48.651Z,1015.27
2018-02-09T00:21:58.344Z,1015.23
2018-02-09T00:23:08.297Z,1015.25
2018-02-09T00:24:18.242Z,1015.27
2018-02-09T00:25:28.198Z,1015.23
2018-02-09T00:26:38.136Z,1015.24
2018-02-09T00:27:48.080Z,1015.23
2018-02-09T00:28:57.769Z,1015.18
2018-02-09T00:30:07.445Z,1015.24
2018-02-09T00:31:17.391Z,1015.23
2018-02-09T00:32:27.084Z,1015.22
2018-02-09T00:33:37.029Z,1015.25
2018-02-09T00:34:46.992Z,1015.22
2018-02-09T00:35:56.930Z,1015.27
2018-02-09T00:37:06.883Z,1015.25
2018-02-09T00:38:16.583Z,1015.26
2018-02-09T00:39:26.528Z,1015.29
2018-02-09T00:40:36.278Z,1015.24
2018-02-09T00:41:46.255Z,1015.3
2018-02-09T00:42:56.191Z,1015.32
2018-02-09T00:44:06.127Z,1015.28
2018-02-09T00:45:15.810Z,1015.26
2018-02-09T00:46:25.234Z,1015.24
2018-02-09T00:47:35.188Z,1015.28
2018-02-09T00:48:45.132Z,1015.24
2018-02-09T00:49:55.065Z,1015.23
2018-02-09T00:51:04.791Z,1015.22
2018-02-09T00:52:14.739Z,1015.24
2018-02-09T00:53:24.677Z,1015.23
2018-02-09T00:54:34.374Z,1015.24
2018-02-09T00:55:44.308Z,1015.23
2018-02-09T00:56:54.496Z,1015.21
2018-02-09T00:58:04.436Z,1015.26
2018-02-09T00:59:14.412Z,1015.25
2018-02-09T01:00:24.432Z,1015.24
2018-02-09T01:01:34.367Z,1015.25
2018-02-09T01:02:44.321Z,1015.23
2018-02-09T01:03:54.010Z,1015.22
2018-02-09T01:05:03.955Z,1015.2
2018-02-09T01:06:13.897Z,1015.19
2018-02-09T01:07:23.632Z,1015.21
2018-02-09T01:08:33.591Z,1015.21
2018-02-09T01:09:43.292Z,1015.22
2018-02-09T01:10:52.976Z,1015.18
2018-02-09T01:12:02.930Z,1015.22
2018-02-09T01:13:12.862Z,1015.21
2018-02-09T01:14:22.544Z,1015.22
2018-02-09T01:15:32.489Z,1015.19
2018-02-09T01:16:42.445Z,1015.16
2018-02-09T01:17:52.388Z,1015.2
2018-02-09T01:19:02.322Z,1015.16
2018-02-09T01:20:12.268Z,1015.14
2018-02-09T01:21:21.955Z,1015.15
2018-02-09T01:22:31.902Z,1015.11
2018-02-09T01:23:41.842Z,1015.09
2018-02-09T01:24:51.778Z,1015.09
2018-02-09T01:26:01.712Z,1015.06
2018-02-09T01:27:11.646Z,1015.06
2018-02-09T01:28:21.616Z,1015.08
2018-02-09T01:29:31.560Z,1015.05
2018-02-09T01:30:41.510Z,1015.07
2018-02-09T01:31:51.441Z,1015.04
2018-02-09T01:33:01.112Z,1015
2018-02-09T01:34:11.067Z,1015
2018-02-09T01:35:21.073Z,1015
2018-02-09T01:36:31.015Z,1015.03
2018-02-09T01:37:40.959Z,1015.02
2018-02-09T01:38:50.903Z,1014.99
2018-02-09T01:40:00.843Z,1014.99
2018-02-09T01:41:10.778Z,1014.99
2018-02-09T01:42:20.716Z,1015
2018-02-09T01:43:30.657Z,1014.95
2018-02-09T01:44:40.333Z,1014.95
2018-02-09T01:45:50.264Z,1014.95
2018-02-09T01:47:00.209Z,1014.98
2018-02-09T01:48:10.164Z,1014.93
2018-02-09T01:49:20.116Z,1014.96
2018-02-09T01:50:30.058Z,1014.94
2018-02-09T01:51:40.002Z,1014.88
2018-02-09T01:52:49.948Z,1014.88
2018-02-09T01:53:59.880Z,1014.88
2018-02-09T01:55:09.818Z,1014.87
2018-02-09T01:56:19.509Z,1014.84
2018-02-09T01:57:29.459Z,1014.84
2018-02-09T01:58:39.137Z,1014.83
2018-02-09T01:59:49.072Z,1014.86
2018-02-09T02:00:59.004Z,1014.79
2018-02-09T02:02:08.954Z,1014.84
2018-02-09T02:03:18.898Z,1014.79
2018-02-09T02:04:28.598Z,1014.83
2018-02-09T02:05:38.544Z,1014.8
2018-02-09T02:06:48.539Z,1014.81
2018-02-09T02:07:58.231Z,1014.78
2018-02-09T02:09:08.200Z,1014.78
2018-02-09T02:10:17.884Z,1014.76
2018-02-09T02:11:27.839Z,1014.76
2018-02-09T02:12:37.774Z,1014.76
2018-02-09T02:13:47.710Z,1014.78
2018-02-09T02:14:57.386Z,1014.77
2018-02-09T02:16:07.339Z,1014.75
2018-02-09T02:17:17.022Z,1014.74
2018-02-09T02:18:26.974Z,1014.71
2018-02-09T02:19:36.662Z,1014.7
2018-02-09T02:20:46.602Z,1014.7
2018-02-09T02:21:56.540Z,1014.71
2018-02-09T02:23:06.474Z,1014.65
2018-02-09T02:24:16.413Z,1014.67
2018-02-09T02:25:26.354Z,1014.67
2018-02-09T02:26:35.774Z,1014.66
2018-02-09T02:27:45.713Z,1014.66
2018-02-09T02:28:55.680Z,1014.61
2018-02-09T02:30:05.366Z,1014.62
2018-02-09T02:31:15.252Z,1014.59
2018-02-09T02:32:25.196Z,1014.54
2018-02-09T02:33:35.141Z,1014.6
2018-02-09T02:34:45.090Z,1014.59
2018-02-09T02:35:55.079Z,1014.57
2018-02-09T02:37:05.030Z,1014.55
2018-02-09T02:38:14.723Z,1014.57
2018-02-09T02:39:24.697Z,1014.58
2018-02-09T02:40:34.376Z,1014.58
2018-02-09T02:41:44.319Z,1014.53
2018-02-09T02:42:54.249Z,1014.51
2018-02-09T02:44:04.200Z,1014.53
2018-02-09T02:45:14.158Z,1014.53
2018-02-09T02:46:24.100Z,1014.55
2018-02-09T02:47:34.035Z,1014.5
2018-02-09T02:48:43.214Z,1014.49
2018-02-09T02:49:53.155Z,1014.47
2018-02-09T02:51:03.094Z,1014.48
2018-02-09T02:52:13.081Z,1014.47
2018-02-09T02:53:22.770Z,1014.42
2018-02-09T02:54:32.720Z,1014.43
2018-02-09T02:55:42.671Z,1014.47
2018-02-09T02:56:52.620Z,1014.47
2018-02-09T02:58:02.568Z,1014.49
2018-02-09T02:59:12.515Z,1014.5
2018-02-09T03:00:22.451Z,1014.45
2018-02-09T03:01:32.397Z,1014.47
2018-02-09T03:02:42.084Z,1014.44
2018-02-09T03:03:52.019Z,1014.38
2018-02-09T03:05:01.959Z,1014.4
2018-02-09T03:06:11.902Z,1014.42
2018-02-09T03:07:21.836Z,1014.42
2018-02-09T03:08:31.524Z,1014.41
2018-02-09T03:09:41.470Z,1014.37
2018-02-09T03:10:51.155Z,1014.36
2018-02-09T03:12:01.139Z,1014.35
2018-02-09T03:13:11.076Z,1014.34
2018-02-09T03:14:21.025Z,1014.32
2018-02-09T03:15:30.961Z,1014.32
2018-02-09T03:16:40.645Z,1014.29
2018-02-09T03:17:50.606Z,1014.3
2018-02-09T03:19:00.546Z,1014.24
2018-02-09T03:20:10.232Z,1014.23
2018-02-09T03:21:19.910Z,1014.21
2018-02-09T03:22:29.857Z,1014.23
2018-02-09T03:23:39.799Z,1014.18
2018-02-09T03:24:49.749Z,1014.16
2018-02-09T03:25:59.681Z,1014.16
2018-02-09T03:27:09.360Z,1014.14
2018-02-09T03:28:19.298Z,1014.15
2018-02-09T03:29:29.236Z,1014.14
2018-02-09T03:30:39.181Z,1014.15
2018-02-09T03:31:49.186Z,1014.17
2018-02-09T03:32:59.124Z,1014.15
2018-02-09T03:34:09.060Z,1014.09
2018-02-09T03:35:19.000Z,1014.09
2018-02-09T03:36:28.942Z,1014.11
2018-02-09T03:37:38.626Z,1014.11
2018-02-09T03:38:48.330Z,1014.15
2018-02-09T03:39:58.264Z,1014.08
2018-02-09T03:41:08.444Z,1014.06
2018-02-09T03:42:18.116Z,1014.13
2018-02-09T03:43:27.841Z,1014.11
2018-02-09T03:44:37.780Z,1014.11
2018-02-09T03:45:47.711Z,1014.11
2018-02-09T03:46:57.652Z,1014.12
2018-02-09T03:48:07.339Z,1014.12
2018-02-09T03:49:17.285Z,1014.1
2018-02-09T03:50:27.222Z,1014.08
2018-02-09T03:51:37.165Z,1014.13
2018-02-09T03:52:46.839Z,1014.09
2018-02-09T03:53:56.771Z,1014.05
2018-02-09T03:55:06.720Z,1014.11
2018-02-09T03:56:16.654Z,1014.11
2018-02-09T03:57:26.594Z,1014.13
2018-02-09T03:58:36.283Z,1014.17
2018-02-09T03:59:45.991Z,1014.12
2018-02-09T04:00:55.925Z,1014.12
2018-02-09T04:02:05.603Z,1014.09
2018-02-09T04:03:15.542Z,1014.13
2018-02-09T04:04:25.480Z,1014.12
2018-02-09T04:05:35.424Z,1014.14
2018-02-09T04:06:45.382Z,1014.1
2018-02-09T04:07:55.316Z,1014.11
2018-02-09T04:09:04.998Z,1014.13
2018-02-09T04:10:14.933Z,1014.1
2018-02-09T04:11:24.866Z,1014.08
2018-02-09T04:12:34.807Z,1014.08
2018-02-09T04:13:44.747Z,1014.09
2018-02-09T04:14:54.424Z,1014.08
2018-02-09T04:16:04.354Z,1014.07
2018-02-09T04:17:14.290Z,1014.03
2018-02-09T04:18:24.232Z,1014.05
2018-02-09T04:19:34.178Z,1014.07
2018-02-09T04:20:44.131Z,1014.05
2018-02-09T04:21:54.068Z,1014
2018-02-09T04:23:04.113Z,1014
2018-02-09T04:24:14.051Z,1014.02
2018-02-09T04:25:23.732Z,1014.02
2018-02-09T04:26:33.669Z,1014.02
2018-02-09T04:27:43.368Z,1014.01
2018-02-09T04:28:53.324Z,1014.01
2018-02-09T04:30:03.001Z,1013.97
2018-02-09T04:31:12.939Z,1013.99
2018-02-09T04:32:22.694Z,1013.93
2018-02-09T04:33:32.683Z,1013.98
2018-02-09T04:34:42.627Z,1013.99
2018-02-09T04:35:52.565Z,1014.01
2018-02-09T04:37:02.499Z,1014.03
2018-02-09T04:38:12.184Z,1014.03
2018-02-09T04:39:21.618Z,1014.01
2018-02-09T04:40:31.556Z,1014.01
2018-02-09T04:41:41.496Z,1014.03
2018-02-09T04:42:51.432Z,1013.98
2018-02-09T04:44:01.378Z,1014.02
2018-02-09T04:45:11.319Z,1013.99
2018-02-09T04:46:21.264Z,1013.99
2018-02-09T04:47:31.153Z,1013.94
2018-02-09T04:48:41.110Z,1013.99
2018-02-09T04:49:51.110Z,1014.02
2018-02-09T04:51:00.791Z,1013.99
2018-02-09T04:52:10.729Z,1014.05
2018-02-09T04:53:20.398Z,1014.01
2018-02-09T04:54:30.078Z,1013.98
2018-02-09T04:55:40.008Z,1013.96
2018-02-09T04:56:49.948Z,1013.97
2018-02-09T04:57:59.941Z,1013.94
2018-02-09T04:59:09.627Z,1013.96
2018-02-09T05:00:19.305Z,1013.93
2018-02-09T05:01:29.002Z,1013.97
2018-02-09T05:02:38.956Z,1013.97
2018-02-09T05:03:48.374Z,1013.95
2018-02-09T05:04:58.310Z,1013.9
2018-02-09T05:06:08.266Z,1013.91
2018-02-09T05:07:17.948Z,1013.93
2018-02-09T05:08:27.900Z,1013.94
2018-02-09T05:09:37.833Z,1013.96
2018-02-09T05:10:47.778Z,1013.95
2018-02-09T05:11:57.717Z,1013.96
2018-02-09T05:13:07.410Z,1013.94
2018-02-09T05:14:17.361Z,1013.89
2018-02-09T05:15:27.048Z,1013.92
2018-02-09T05:16:37.227Z,1013.93
2018-02-09T05:17:47.157Z,1013.95
2018-02-09T05:18:56.836Z,1013.88
2018-02-09T05:20:06.515Z,1013.9
2018-02-09T05:21:16.452Z,1013.84
2018-02-09T05:22:26.131Z,1013.86
2018-02-09T05:23:36.064Z,1013.86
2018-02-09T05:24:45.766Z,1013.93
2018-02-09T05:25:55.712Z,1013.91
2018-02-09T05:27:05.402Z,1013.87
2018-02-09T05:28:15.099Z,1013.85
2018-02-09T05:29:25.035Z,1013.81
2018-02-09T05:30:34.717Z,1013.79
2018-02-09T05:31:44.675Z,1013.83
2018-02-09T05:32:54.624Z,1013.84
2018-02-09T05:34:04.338Z,1013.84
2018-02-09T05:35:14.069Z,1013.84
2018-02-09T05:36:24.019Z,1013.79
2018-02-09T05:37:33.967Z,1013.84
2018-02-09T05:38:43.926Z,1013.82
2018-02-09T05:39:53.904Z,1013.79
2018-02-09T05:41:03.852Z,1013.79
2018-02-09T05:42:13.527Z,1013.84
2018-02-09T05:43:23.209Z,1013.84
2018-02-09T05:44:32.898Z,1013.79
2018-02-09T05:45:42.601Z,1013.77
2018-02-09T05:46:52.537Z,1013.77
2018-02-09T05:48:02.496Z,1013.8
2018-02-09T05:49:12.455Z,1013.78
2018-02-09T05:50:22.193Z,1013.78
2018-02-09T05:51:32.124Z,1013.78
2018-02-09T05:52:42.070Z,1013.75
2018-02-09T05:53:51.751Z,1013.73
2018-02-09T05:55:01.452Z,1013.75
2018-02-09T05:56:11.189Z,1013.7
2018-02-09T05:57:21.127Z,1013.66
2018-02-09T05:58:31.066Z,1013.67
2018-02-09T05:59:41.037Z,1013.66
2018-02-09T06:00:50.981Z,1013.66
2018-02-09T06:02:00.667Z,1013.68
2018-02-09T06:03:10.371Z,1013.64
2018-02-09T06:04:20.306Z,1013.59
2018-02-09T06:05:30.253Z,1013.58
2018-02-09T06:06:40.196Z,1013.58
2018-02-09T06:07:49.901Z,1013.61
2018-02-09T06:08:59.601Z,1013.57
2018-02-09T06:10:09.565Z,1013.6
2018-02-09T06:11:19.279Z,1013.64
2018-02-09T06:12:29.238Z,1013.61
2018-02-09T06:13:39.226Z,1013.59
2018-02-09T06:14:49.167Z,1013.55
2018-02-09T06:15:59.111Z,1013.57
2018-02-09T06:17:09.047Z,1013.58
2018-02-09T06:18:18.995Z,1013.61
2018-02-09T06:19:28.687Z,1013.62
2018-02-09T06:20:38.633Z,1013.62
2018-02-09T06:21:48.601Z,1013.58
2018-02-09T06:22:58.278Z,1013.59
2018-02-09T06:24:07.958Z,1013.58
2018-02-09T06:25:17.646Z,1013.55
2018-02-09T06:26:27.077Z,1013.51
2018-02-09T06:27:36.772Z,1013.52
2018-02-09T06:28:46.708Z,1013.5
2018-02-09T06:29:56.651Z,1013.51
2018-02-09T06:31:06.592Z,1013.6
2018-02-09T06:32:16.530Z,1013.56
2018-02-09T06:33:26.477Z,1013.6
2018-02-09T06:34:36.467Z,1013.59
2018-02-09T06:35:46.158Z,1013.59
2018-02-09T06:36:56.201Z,1013.53
2018-02-09T06:38:06.137Z,1013.55
2018-02-09T06:39:15.577Z,1013.57
2018-02-09T06:40:25.270Z,1013.52
2018-02-09T06:41:35.203Z,1013.48
2018-02-09T06:42:45.153Z,1013.52
2018-02-09T06:43:54.837Z,1013.46
2018-02-09T06:45:04.773Z,1013.48
2018-02-09T06:46:14.721Z,1013.48
2018-02-09T06:47:24.419Z,1013.51
2018-02-09T06:48:34.379Z,1013.48
2018-02-09T06:49:44.322Z,1013.46
2018-02-09T06:50:54.275Z,1013.5
2018-02-09T06:52:04.205Z,1013.51
2018-02-09T06:53:13.888Z,1013.48
2018-02-09T06:54:23.577Z,1013.49
2018-02-09T06:55:33.522Z,1013.53
2018-02-09T06:56:43.469Z,1013.55
2018-02-09T06:57:53.161Z,1013.52
2018-02-09T06:59:03.121Z,1013.54
2018-02-09T07:00:12.806Z,1013.56
2018-02-09T07:01:22.740Z,1013.58
2018-02-09T07:02:32.679Z,1013.59
2018-02-09T07:03:42.628Z,1013.57
2018-02-09T07:04:52.566Z,1013.58
2018-02-09T07:06:02.502Z,1013.63
2018-02-09T07:07:12.455Z,1013.56
2018-02-09T07:08:22.391Z,1013.59
2018-02-09T07:09:32.356Z,1013.62
2018-02-09T07:10:42.038Z,1013.56
2018-02-09T07:11:51.991Z,1013.58
2018-02-09T07:13:01.930Z,1013.58
2018-02-09T07:14:11.946Z,1013.55
2018-02-09T07:15:21.913Z,1013.6
2018-02-09T07:16:31.870Z,1013.57
2018-02-09T07:17:41.557Z,1013.63
2018-02-09T07:18:51.259Z,1013.62
2018-02-09T07:20:01.197Z,1013.63
2018-02-09T07:21:10.620Z,1013.63
2018-02-09T07:22:20.562Z,1013.63
2018-02-09T07:23:30.512Z,1013.63
2018-02-09T07:24:40.448Z,1013.58
2018-02-09T07:25:50.130Z,1013.58
2018-02-09T07:27:00.073Z,1013.6
2018-02-09T07:28:10.022Z,1013.61
2018-02-09T07:29:19.960Z,1013.61
2018-02-09T07:30:29.898Z,1013.59
2018-02-09T07:31:39.592Z,1013.59
2018-02-09T07:32:49.314Z,1013.61
2018-02-09T07:33:59.333Z,1013.64
2018-02-09T07:35:09.272Z,1013.61
2018-02-09T07:36:18.999Z,1013.6
2018-02-09T07:37:28.933Z,1013.55
2018-02-09T07:38:38.630Z,1013.55
2018-02-09T07:39:48.569Z,1013.54
2018-02-09T07:40:58.259Z,1013.53
2018-02-09T07:42:07.961Z,1013.53
2018-02-09T07:43:17.907Z,1013.5
2018-02-09T07:44:27.850Z,1013.5
2018-02-09T07:45:37.543Z,1013.46
2018-02-09T07:46:47.494Z,1013.52
2018-02-09T07:47:57.451Z,1013.54
2018-02-09T07:49:07.397Z,1013.55
2018-02-09T07:50:17.374Z,1013.55
2018-02-09T07:51:27.329Z,1013.57
2018-02-09T07:52:37.007Z,1013.57
2018-02-09T07:53:46.689Z,1013.59
2018-02-09T07:54:56.639Z,1013.56
2018-02-09T07:56:06.588Z,1013.49
2018-02-09T07:57:16.544Z,1013.5
2018-02-09T07:58:26.497Z,1013.5
2018-02-09T07:59:36.195Z,1013.46
2018-02-09T08:00:46.146Z,1013.53
2018-02-09T08:01:56.102Z,1013.57
2018-02-09T08:03:06.057Z,1013.54
2018-02-09T08:04:15.748Z,1013.52
2018-02-09T08:05:25.446Z,1013.48
2018-02-09T08:06:34.878Z,1013.39
2018-02-09T08:07:44.825Z,1013.39
2018-02-09T08:08:54.767Z,1013.39
2018-02-09T08:10:04.459Z,1013.43
2018-02-09T08:11:14.417Z,1013.45
2018-02-09T08:12:24.367Z,1013.45
2018-02-09T08:13:34.316Z,1013.43
2018-02-09T08:14:44.262Z,1013.48
2018-02-09T08:15:53.942Z,1013.42
2018-02-09T08:17:03.629Z,1013.35
2018-02-09T08:18:13.619Z,1013.35
2018-02-09T08:19:23.551Z,1013.39
2018-02-09T08:20:32.981Z,1013.42
2018-02-09T08:21:42.922Z,1013.4
2018-02-09T08:22:52.864Z,1013.4
2018-02-09T08:24:02.803Z,1013.4
2018-02-09T08:25:12.738Z,1013.43
2018-02-09T08:26:22.688Z,1013.34
2018-02-09T08:27:32.637Z,1013.35
2018-02-09T08:28:42.324Z,1013.34
2018-02-09T08:29:52.275Z,1013.4
2018-02-09T08:31:02.001Z,1013.36
2018-02-09T08:32:11.697Z,1013.39
2018-02-09T08:33:21.634Z,1013.4
2018-02-09T08:34:31.324Z,1013.37
2018-02-09T08:35:41.018Z,1013.4
2018-02-09T08:36:50.697Z,1013.43
2018-02-09T08:38:00.653Z,1013.44
2018-02-09T08:39:10.603Z,1013.4
2018-02-09T08:40:20.571Z,1013.36
2018-02-09T08:41:30.528Z,1013.4
2018-02-09T08:42:40.221Z,1013.33
2018-02-09T08:43:50.165Z,1013.35
2018-02-09T08:45:00.129Z,1013.34
2018-02-09T08:46:10.093Z,1013.34
2018-02-09T08:47:19.789Z,1013.31
2018-02-09T08:48:29.482Z,1013.31
2018-02-09T08:49:39.439Z,1013.32
2018-02-09T08:50:49.656Z,1013.31
2018-02-09T08:51:59.626Z,1013.25
2018-02-09T08:53:09.666Z,1013.25
2018-02-09T08:54:19.630Z,1013.26
2018-02-09T08:55:29.596Z,1013.25
2018-02-09T08:56:39.570Z,1013.24
2018-02-09T08:57:49.324Z,1013.19
2018-02-09T08:58:59.328Z,1013.19
2018-02-09T09:00:09.315Z,1013.17
2018-02-09T09:01:19.227Z,1013.23
2018-02-09T09:02:29.195Z,1013.22
2018-02-09T09:03:38.889Z,1013.18
2018-02-09T09:04:48.855Z,1013.16
2018-02-09T09:05:58.565Z,1013.15
2018-02-09T09:07:08.526Z,1013.15
2018-02-09T09:08:18.479Z,1013.13
2018-02-09T09:09:28.472Z,1013.14
2018-02-09T09:10:38.168Z,1013.09
2018-02-09T09:11:47.863Z,1013.16
2018-02-09T09:12:58.097Z,1013.14
2018-02-09T09:14:08.070Z,1013.16
2018-02-09T09:15:18.022Z,1013.16
2018-02-09T09:16:27.995Z,1013.12
2018-02-09T09:17:37.703Z,1013.17
2018-02-09T09:18:47.652Z,1013.16
2018-02-09T09:19:57.614Z,1013.16
2018-02-09T09:21:07.336Z,1013.16
2018-02-09T09:22:17.298Z,1013.15
2018-02-09T09:23:26.737Z,1013.19
2018-02-09T09:24:36.448Z,1013.14
2018-02-09T09:25:46.412Z,1013.15
2018-02-09T09:26:56.376Z,1013.15
2018-02-09T09:28:06.353Z,1013.14
2018-02-09T09:29:16.127Z,1013.1
2018-02-09T09:30:25.835Z,1013.08
2018-02-09T09:31:35.801Z,1013.05
2018-02-09T09:32:45.495Z,1013.04
2018-02-09T09:33:55.590Z,1013.01
2018-02-09T09:35:05.543Z,1013.07
2018-02-09T09:36:15.507Z,1012.98
2018-02-09T09:37:25.490Z,1012.98
2018-02-09T09:38:35.465Z,1012.97
2018-02-09T09:39:45.427Z,1012.98
2018-02-09T09:40:54.347Z,1012.95
2018-02-09T09:42:04.055Z,1012.98
2018-02-09T09:43:14.004Z,1012.97
2018-02-09T09:44:23.949Z,1012.91
2018-02-09T09:45:33.906Z,1012.96
2018-02-09T09:46:43.854Z,1012.94
2018-02-09T09:47:53.547Z,1012.97
2018-02-09T09:49:03.498Z,1012.93
2018-02-09T09:50:13.463Z,1012.91
2018-02-09T09:51:23.429Z,1012.88
2018-02-09T09:52:33.382Z,1012.9
2018-02-09T09:53:43.350Z,1012.81
2018-02-09T09:54:53.054Z,1012.89
2018-02-09T09:56:02.745Z,1012.88
2018-02-09T09:57:12.698Z,1012.9
2018-02-09T09:58:22.639Z,1012.86
2018-02-09T09:59:32.613Z,1012.89
2018-02-09T10:00:42.554Z,1012.87
2018-02-09T10:01:52.496Z,1012.86
2018-02-09T10:03:02.453Z,1012.89
2018-02-09T10:04:12.162Z,1012.88
2018-02-09T10:05:21.893Z,1012.88
2018-02-09T10:06:31.853Z,1012.94
2018-02-09T10:07:41.793Z,1012.9
2018-02-09T10:08:51.492Z,1012.89
2018-02-09T10:10:01.179Z,1012.89
2018-02-09T10:11:11.138Z,1012.83
2018-02-09T10:12:21.105Z,1012.82
2018-02-09T10:13:31.052Z,1012.8
2018-02-09T10:14:40.822Z,1012.79
2018-02-09T10:15:50.767Z,1012.75
2018-02-09T10:17:00.705Z,1012.76
2018-02-09T10:18:10.398Z,1012.8
2018-02-09T10:19:20.344Z,1012.78
2018-02-09T10:20:29.785Z,1012.78
2018-02-09T10:21:39.746Z,1012.81
2018-02-09T10:22:49.699Z,1012.78
2018-02-09T10:23:59.411Z,1012.63
2018-02-09T10:25:09.455Z,1012.75
2018-02-09T10:26:18.939Z,1012.73
2018-02-09T10:27:28.917Z,1012.71
2018-02-09T10:28:38.898Z,1012.71
2018-02-09T10:29:48.853Z,1012.72
2018-02-09T10:30:58.824Z,1012.69
2018-02-09T10:32:08.508Z,1012.7
2018-02-09T10:33:18.463Z,1012.64
2018-02-09T10:34:28.473Z,1012.66
2018-02-09T10:35:38.168Z,1012.69
2018-02-09T10:36:48.115Z,1012.65
2018-02-09T10:37:58.075Z,1012.65
2018-02-09T10:39:07.797Z,1012.65
2018-02-09T10:40:17.502Z,1012.6
2018-02-09T10:41:27.206Z,1012.62
2018-02-09T10:42:37.166Z,1012.61
2018-02-09T10:43:47.106Z,1012.62
2018-02-09T10:44:57.047Z,1012.59
2018-02-09T10:46:06.995Z,1012.57
2018-02-09T10:47:16.679Z,1012.62
2018-02-09T10:48:26.120Z,1012.61
2018-02-09T10:49:36.062Z,1012.6
2018-02-09T10:50:45.756Z,1012.61
2018-02-09T10:51:55.460Z,1012.55
2018-02-09T10:53:05.452Z,1012.57
2018-02-09T10:54:15.167Z,1012.57
2018-02-09T10:55:25.132Z,1012.57
2018-02-09T10:56:35.082Z,1012.55
2018-02-09T10:57:45.193Z,1012.56
2018-02-09T10:58:54.879Z,1012.55
2018-02-09T11:00:04.826Z,1012.53
2018-02-09T11:01:14.801Z,1012.49
2018-02-09T11:02:24.754Z,1012.5
2018-02-09T11:03:34.705Z,1012.5
2018-02-09T11:04:44.407Z,1012.56
2018-02-09T11:05:54.126Z,1012.54
2018-02-09T11:07:04.096Z,1012.57
2018-02-09T11:08:14.119Z,1012.52
2018-02-09T11:09:23.826Z,1012.54
2018-02-09T11:10:33.792Z,1012.55
2018-02-09T11:11:43.502Z,1012.51
2018-02-09T11:12:53.463Z,1012.51
2018-02-09T11:14:03.202Z,1012.52
2018-02-09T11:15:13.201Z,1012.54
2018-02-09T11:16:22.909Z,1012.51
2018-02-09T11:17:32.868Z,1012.5
2018-02-09T11:18:42.830Z,1012.49
2018-02-09T11:19:52.798Z,1012.46
2018-02-09T11:21:02.487Z,1012.46
2018-02-09T11:22:12.199Z,1012.4
2018-02-09T11:23:22.167Z,1012.44
2018-02-09T11:24:32.169Z,1012.43
2018-02-09T11:25:42.135Z,1012.39
2018-02-09T11:26:52.104Z,1012.39
2018-02-09T11:28:02.063Z,1012.41
2018-02-09T11:29:11.780Z,1012.43
2018-02-09T11:30:21.732Z,1012.39
2018-02-09T11:31:31.424Z,1012.33
2018-02-09T11:32:41.139Z,1012.36
2018-02-09T11:33:51.124Z,1012.38
2018-02-09T11:35:00.808Z,1012.36
2018-02-09T11:36:10.819Z,1012.32
2018-02-09T11:37:20.548Z,1012.27
2018-02-09T11:38:30.249Z,1012.3
2018-02-09T11:39:40.006Z,1012.27
2018-02-09T11:40:49.970Z,1012.27
2018-02-09T11:41:59.968Z,1012.31
2018-02-09T11:43:09.918Z,1012.29
2018-02-09T11:44:19.881Z,1012.28
2018-02-09T11:45:29.871Z,1012.3
2018-02-09T11:46:39.570Z,1012.25
2018-02-09T11:47:49.535Z,1012.25
2018-02-09T11:48:59.489Z,1012.21
2018-02-09T11:50:09.450Z,1012.24
2018-02-09T11:51:19.144Z,1012.24
2018-02-09T11:52:28.850Z,1012.19
2018-02-09T11:53:38.311Z,1012.14
2018-02-09T11:54:48.316Z,1012.16
2018-02-09T11:55:58.061Z,1012.14
2018-02-09T11:57:08.025Z,1012.13
2018-02-09T11:58:17.989Z,1012.12
2018-02-09T11:59:28.208Z,1012.1
2018-02-09T12:00:37.948Z,1012.11
2018-02-09T12:01:47.920Z,1012.08
2018-02-09T12:02:57.618Z,1012.07
2018-02-09T12:04:07.338Z,1012.05
2018-02-09T12:05:17.317Z,1012.02
2018-02-09T12:06:26.757Z,1012.06
2018-02-09T12:07:36.726Z,1012.02
2018-02-09T12:08:46.671Z,1012.04
2018-02-09T12:09:56.659Z,1012.01
2018-02-09T12:11:06.368Z,1012.02
2018-02-09T12:12:16.343Z,1012.03
2018-02-09T12:13:26.298Z,1011.99
2018-02-09T12:14:36.244Z,1012
2018-02-09T12:15:46.202Z,1011.97
2018-02-09T12:16:56.161Z,1011.96
2018-02-09T12:18:05.867Z,1012
2018-02-09T12:19:15.828Z,1011.93
2018-02-09T12:20:25.777Z,1011.95
2018-02-09T12:21:35.480Z,1011.89
2018-02-09T12:22:45.499Z,1011.92
2018-02-09T12:23:55.465Z,1011.89
2018-02-09T12:25:05.427Z,1011.97
2018-02-09T12:26:15.392Z,1011.93
2018-02-09T12:27:25.354Z,1011.91
2018-02-09T12:28:35.330Z,1011.91
2018-02-09T12:29:45.032Z,1011.9
2018-02-09T12:30:54.999Z,1011.9
2018-02-09T12:32:04.968Z,1011.85
2018-02-09T12:33:14.676Z,1011.82
2018-02-09T12:34:24.401Z,1011.83
2018-02-09T12:35:34.387Z,1011.8
2018-02-09T12:36:44.089Z,1011.8
2018-02-09T12:37:54.025Z,1011.85
2018-02-09T12:39:04.040Z,1011.84
2018-02-09T12:40:13.765Z,1011.86
2018-02-09T12:41:23.728Z,1011.86
2018-02-09T12:42:33.678Z,1011.81
2018-02-09T12:43:43.373Z,1011.78
2018-02-09T12:44:53.329Z,1011.75
2018-02-09T12:46:02.759Z,1011.74
2018-02-09T12:47:12.480Z,1011.71
2018-02-09T12:48:22.435Z,1011.74
2018-02-09T12:49:32.388Z,1011.67
2018-02-09T12:50:42.086Z,1011.65
2018-02-09T12:51:52.042Z,1011.65
2018-02-09T12:53:01.995Z,1011.6
2018-02-09T12:54:11.949Z,1011.58
2018-02-09T12:55:21.658Z,1011.56
2018-02-09T12:56:31.355Z,1011.54
2018-02-09T12:57:41.073Z,1011.57
2018-02-09T12:58:50.789Z,1011.49
2018-02-09T13:00:00.762Z,1011.53
2018-02-09T13:01:10.723Z,1011.45
2018-02-09T13:02:20.427Z,1011.48
2018-02-09T13:03:29.865Z,1011.43
2018-02-09T13:04:39.550Z,1011.48
2018-02-09T13:05:49.242Z,1011.53
2018-02-09T13:06:59.197Z,1011.43
2018-02-09T13:08:08.954Z,1011.38
2018-02-09T13:09:19.022Z,1011.35
2018-02-09T13:10:28.728Z,1011.3
2018-02-09T13:11:38.675Z,1011.33
2018-02-09T13:12:48.382Z,1011.3
2018-02-09T13:13:58.343Z,1011.29
2018-02-09T13:15:08.300Z,1011.29
2018-02-09T13:16:18.258Z,1011.3
2018-02-09T13:17:28.228Z,1011.32
2018-02-09T13:18:38.194Z,1011.3
2018-02-09T13:19:48.170Z,1011.29
2018-02-09T13:20:58.120Z,1011.28
2018-02-09T13:22:07.823Z,1011.24
2018-02-09T13:23:17.784Z,1011.24
2018-02-09T13:24:27.746Z,1011.16
2018-02-09T13:25:37.703Z,1011.19
2018-02-09T13:26:47.659Z,1011.24
2018-02-09T13:27:57.616Z,1011.18
2018-02-09T13:29:07.600Z,1011.2
2018-02-09T13:30:17.304Z,1011.14
2018-02-09T13:31:27.254Z,1011.1
2018-02-09T13:32:37.222Z,1011.18
2018-02-09T13:33:47.199Z,1011.18
2018-02-09T13:34:57.151Z,1011.17
2018-02-09T13:36:06.842Z,1011.09
2018-02-09T13:37:16.536Z,1011.11
2018-02-09T13:38:26.252Z,1011.12
2018-02-09T13:39:36.214Z,1011.08
2018-02-09T13:40:45.930Z,1011.04
2018-02-09T13:41:55.885Z,1011
2018-02-09T13:43:05.580Z,1011.06
2018-02-09T13:44:15.530Z,1011.03
2018-02-09T13:45:25.480Z,1011.02
2018-02-09T13:46:35.431Z,1010.99
2018-02-09T13:47:45.389Z,1011.04
2018-02-09T13:48:55.366Z,1011.01
2018-02-09T13:50:05.398Z,1011.04
2018-02-09T13:51:15.355Z,1011.01
2018-02-09T13:52:25.329Z,1011
2018-02-09T13:53:35.032Z,1011
2018-02-09T13:54:44.993Z,1010.98
2018-02-09T13:55:54.966Z,1010.96
2018-02-09T13:57:04.677Z,1010.97
2018-02-09T13:58:14.652Z,1010.94
2018-02-09T13:59:24.633Z,1010.92
2018-02-09T14:00:34.610Z,1010.9
2018-02-09T14:01:44.319Z,1010.92
2018-02-09T14:02:54.344Z,1010.96
2018-02-09T14:04:04.036Z,1010.94
2018-02-09T14:05:14.010Z,1010.96
2018-02-09T14:06:23.464Z,1010.92
2018-02-09T14:07:33.164Z,1010.92
2018-02-09T14:08:42.866Z,1010.91